Time,TemperatureF,DewpointF,PressureIn,WindDirection,WindDirectionDegrees,WindSpeedMPH,WindSpeedGustMPH,Humidity,HourlyPrecipIn,Conditions,Clouds,dailyrainin,SoftwareType,DateUTC
2013-01-18 00:00:00,28.4,24.7,29.97,West,270,7.0,14.0,86,0.00,CLR,CLR,0.00,WeatherDisplay:10.37,2013-01-18 05:00:00,
2013-01-18 00:03:00,28.4,24.7,29.97,West,270,6.7,9.2,86,0.00,CLR,,0.00,WeatherDisplay:10.37,2013-01-18 05:03:00,
2013-01-18 00:05:00,28.4,24.7,29.96,West,270,6.1,11.5,86,0.00,CLR,,0.00,WeatherDisplay:10.37,2013-01-18 05:05:00,
2013-01-18 00:09:00,28.4,25.0,29.97,West,270,8.1,8.1,87,0.00,CLR,,0.00,WeatherDisplay:10.37,2013-01-18 05:09:00,
2013-01-18 00:14:00,28.4,24.7,29.96,West,270,4.3,6.9,86,0.00,CLR,,0.00,WeatherDisplay:10.37,2013-01-18 05:14:00,
2013-01-18 00:19:00,28.4,24.7,29.97,West,270,4.0,6.9,86,0.00,CLR,,0.00,WeatherDisplay:10.37,2013-01-18 05:19:00,
2013-01-18 00:24:00,28.2,24.6,29.97,West,270,4.9,10.4,86,0.00,CLR,,0.00,WeatherDisplay:10.37,2013-01-18 05:24:00,
2013-01-18 00:29:00,28.2,24.6,29.97,West,270,16.0,16.0,86,0.00,CLR,,0.00,WeatherDisplay:10.37,2013-01-18 05:29:00,
2013-01-18 00:34:00,28.4,24.7,29.97,West,270,5.2,12.7,86,0.00,CLR,,0.00,WeatherDisplay:10.37,2013-01-18 05:34:00,
2013-01-18 00:39:00,28.4,25.0,29.97,West,270,11.4,11.4,87,0.00,CLR,,0.00,WeatherDisplay:10.37,2013-01-18 05:39:00,
2013-01-18 00:44:00,28.4,24.7,29.97,West,270,4.0,6.9,86,0.00,CLR,,0.00,WeatherDisplay:10.37,2013-01-18 05:44:00,
2013-01-18 00:49:00,28.4,24.7,29.98,West,270,6.7,8.1,86,0.00,CLR,,0.00,WeatherDisplay:10.37,2013-01-18 05:49:00,
2013-01-18 00:54:00,28.6,24.9,29.98,West,270,6.4,6.9,86,0.00,CLR,,0.00,WeatherDisplay:10.37,2013-01-18 05:54:00,
2013-01-18 00:59:00,28.4,24.7,29.98,West,270,15.7,15.7,86,0.00,CLR,,0.00,WeatherDisplay:10.37,2013-01-18 05:59:00,
2013-01-18 01:04:00,28.4,24.7,29.98,West,270,7.0,15.0,86,0.00,CLR,,0.00,WeatherDisplay:10.37,2013-01-18 06:04:00,
2013-01-18 01:09:00,28.4,24.5,29.98,West,270,12.3,13.8,85,0.00,CLR,,0.00,WeatherDisplay:10.37,2013-01-18 06:09:00,
2013-01-18 01:14:00,28.4,24.5,29.99,West,270,14.8,15.0,85,0.00,CLR,,0.00,WeatherDisplay:10.37,2013-01-18 06:14:00,
2013-01-18 01:19:00,28.4,24.5,29.99,West,270,8.7,15.0,85,0.00,CLR,,0.00,WeatherDisplay:10.37,2013-01-18 06:19:00,
2013-01-18 01:24:00,28.2,24.3,29.99,West,270,14.5,14.5,85,0.00,CLR,,0.00,WeatherDisplay:10.37,2013-01-18 06:24:00,
2013-01-18 01:29:00,27.9,24.2,29.99,West,270,9.0,10.4,86,0.00,CLR,,0.00,WeatherDisplay:10.37,2013-01-18 06:29:00,
2013-01-18 01:35:00,27.7,24.3,29.99,West,270,7.6,11.5,87,0.00,CLR,,0.00,WeatherDisplay:10.37,2013-01-18 06:35:00,
2013-01-18 01:40:00,27.7,24.3,30.00,West,270,7.0,7.0,87,0.00,CLR,,0.00,WeatherDisplay:10.37,2013-01-18 06:40:00,
2013-01-18 01:45:00,27.7,24.0,30.00,West,270,8.4,8.4,86,0.00,CLR,,0.00,WeatherDisplay:10.37,2013-01-18 06:45:00,
2013-01-18 01:50:00,27.7,23.5,30.00,West,270,10.8,10.8,84,0.00,CLR,,0.00,WeatherDisplay:10.37,2013-01-18 06:50:00,
2013-01-18 01:55:00,27.5,22.4,30.01,West,270,21.2,21.2,81,0.00,CLR,,0.00,WeatherDisplay:10.37,2013-01-18 06:55:00,
2013-01-18 02:00:00,27.3,21.7,30.01,West,270,19.7,19.7,79,0.00,CLR,,0.00,WeatherDisplay:10.37,2013-01-18 07:00:00,
2013-01-18 02:06:00,27.3,21.1,30.02,West,270,13.0,16.1,77,0.00,CLR,,0.00,WeatherDisplay:10.37,2013-01-18 07:06:00,
2013-01-18 02:11:00,27.0,19.5,30.02,West,270,17.5,17.5,73,0.00,CLR,,0.00,WeatherDisplay:10.37,2013-01-18 07:11:00,
2013-01-18 02:16:00,26.8,19.0,30.02,West,270,9.9,15.0,72,0.00,CLR,,0.00,WeatherDisplay:10.37,2013-01-18 07:16:00,
2013-01-18 02:21:00,26.6,18.8,30.02,West,270,22.4,22.4,72,0.00,CLR,,0.00,WeatherDisplay:10.37,2013-01-18 07:21:00,
2013-01-18 02:26:00,26.4,18.9,30.02,West,270,9.9,9.9,73,0.00,CLR,,0.00,WeatherDisplay:10.37,2013-01-18 07:26:00,
2013-01-18 02:31:00,26.4,19.3,30.02,West,270,19.7,19.7,74,0.00,CLR,,0.00,WeatherDisplay:10.37,2013-01-18 07:31:00,
2013-01-18 02:36:00,26.2,19.7,30.02,West,270,9.0,9.0,76,0.00,CLR,,0.00,WeatherDisplay:10.37,2013-01-18 07:36:00,
2013-01-18 02:41:00,26.1,20.4,30.03,West,270,13.9,13.9,79,0.00,CLR,,0.00,WeatherDisplay:10.37,2013-01-18 07:41:00,
2013-01-18 02:46:00,25.5,20.2,30.03,West,270,8.7,17.3,80,0.00,CLR,,0.00,WeatherDisplay:10.37,2013-01-18 07:46:00,
2013-01-18 02:51:00,25.2,19.9,30.03,West,270,21.5,21.5,80,0.00,CLR,,0.00,WeatherDisplay:10.37,2013-01-18 07:51:00,
2013-01-18 02:56:00,24.8,19.5,30.04,West,270,6.4,15.0,80,0.00,CLR,,0.00,WeatherDisplay:10.37,2013-01-18 07:56:00,
2013-01-18 03:01:00,24.4,19.7,30.04,West,270,7.6,11.5,82,0.00,CLR,,0.00,WeatherDisplay:10.37,2013-01-18 08:01:00,
2013-01-18 03:06:00,24.3,19.6,30.05,West,270,7.3,12.7,82,0.00,CLR,,0.00,WeatherDisplay:10.37,2013-01-18 08:06:00,
2013-01-18 03:11:00,24.3,19.6,30.05,West,270,17.8,17.8,82,0.00,CLR,,0.00,WeatherDisplay:10.37,2013-01-18 08:11:00,
2013-01-18 03:16:00,24.1,19.9,30.05,West,270,14.5,14.5,84,0.00,CLR,,0.00,WeatherDisplay:10.37,2013-01-18 08:16:00,
2013-01-18 03:21:00,23.9,19.8,30.05,West,270,18.5,18.5,84,0.00,CLR,,0.00,WeatherDisplay:10.37,2013-01-18 08:21:00,
2013-01-18 03:26:00,23.7,19.6,30.05,West,270,7.8,19.6,84,0.00,CLR,,0.00,WeatherDisplay:10.37,2013-01-18 08:26:00,
2013-01-18 03:31:00,23.7,19.6,30.05,West,270,18.5,18.5,84,0.00,CLR,,0.00,WeatherDisplay:10.37,2013-01-18 08:31:00,
2013-01-18 03:36:00,23.7,19.3,30.05,West,270,18.1,23.0,83,0.00,CLR,,0.00,WeatherDisplay:10.37,2013-01-18 08:36:00,
2013-01-18 03:41:00,23.5,19.1,30.06,West,270,13.6,13.6,83,0.00,CLR,,0.00,WeatherDisplay:10.37,2013-01-18 08:41:00,
2013-01-18 03:46:00,23.4,19.8,30.06,West,270,9.0,11.5,86,0.00,CLR,,0.00,WeatherDisplay:10.37,2013-01-18 08:46:00,
2013-01-18 03:51:00,23.0,19.7,30.06,West,270,14.5,17.3,87,0.00,CLR,,0.00,WeatherDisplay:10.37,2013-01-18 08:51:00,
2013-01-18 03:56:00,23.0,19.4,30.06,West,270,17.5,17.5,86,0.00,CLR,,0.00,WeatherDisplay:10.37,2013-01-18 08:56:00,
2013-01-18 04:01:00,23.0,19.2,30.06,West,270,15.4,16.1,85,0.00,CLR,,0.00,WeatherDisplay:10.37,2013-01-18 09:01:00,
2013-01-18 04:06:00,23.0,19.2,30.07,West,270,6.1,12.7,85,0.00,CLR,,0.00,WeatherDisplay:10.37,2013-01-18 09:06:00,
2013-01-18 04:11:00,23.0,19.4,30.07,West,270,9.9,15.0,86,0.00,CLR,,0.00,WeatherDisplay:10.37,2013-01-18 09:11:00,
2013-01-18 04:16:00,22.6,19.4,30.07,West,270,15.4,15.4,87,0.00,CLR,,0.00,WeatherDisplay:10.37,2013-01-18 09:16:00,
2013-01-18 04:21:00,22.1,19.1,30.08,West,270,12.9,16.1,88,0.00,CLR,,0.00,WeatherDisplay:10.37,2013-01-18 09:21:00,
2013-01-18 04:26:00,21.7,19.3,30.08,West,270,8.4,16.1,90,0.00,CLR,,0.00,WeatherDisplay:10.37,2013-01-18 09:26:00,
2013-01-18 04:31:00,21.4,18.9,30.08,West,270,14.2,21.9,90,0.00,CLR,,0.00,WeatherDisplay:10.37,2013-01-18 09:31:00,
2013-01-18 04:36:00,21.4,18.9,30.08,West,270,12.0,20.7,90,0.00,CLR,,0.00,WeatherDisplay:10.37,2013-01-18 09:36:00,
2013-01-18 04:41:00,21.2,18.7,30.08,West,270,11.4,11.4,90,0.00,CLR,,0.00,WeatherDisplay:10.37,2013-01-18 09:41:00,
2013-01-18 04:46:00,21.0,18.0,30.09,West,270,8.7,11.5,88,0.00,CLR,,0.00,WeatherDisplay:10.37,2013-01-18 09:46:00,
2013-01-18 04:51:00,21.0,17.8,30.09,West,270,6.4,10.4,87,0.00,CLR,,0.00,WeatherDisplay:10.37,2013-01-18 09:51:00,
2013-01-18 04:56:00,21.2,17.9,30.09,West,270,17.2,17.3,87,0.00,CLR,,0.00,WeatherDisplay:10.37,2013-01-18 09:56:00,
2013-01-18 05:01:00,21.2,17.9,30.09,West,270,7.3,10.4,87,0.00,CLR,,0.00,WeatherDisplay:10.37,2013-01-18 10:01:00,
2013-01-18 05:06:00,21.0,17.5,30.10,West,270,15.7,15.7,86,0.00,CLR,,0.00,WeatherDisplay:10.37,2013-01-18 10:06:00,
2013-01-18 05:11:00,21.0,17.2,30.10,West,270,13.3,13.3,85,0.00,CLR,,0.00,WeatherDisplay:10.37,2013-01-18 10:11:00,
2013-01-18 05:16:00,20.7,16.9,30.10,West,270,9.0,12.7,85,0.00,CLR,,0.00,WeatherDisplay:10.37,2013-01-18 10:16:00,
2013-01-18 05:21:00,20.1,16.1,30.11,West,270,6.4,13.8,84,0.00,CLR,,0.00,WeatherDisplay:10.37,2013-01-18 10:21:00,
2013-01-18 05:26:00,19.8,16.0,30.12,West,270,4.3,5.8,85,0.00,CLR,,0.00,WeatherDisplay:10.37,2013-01-18 10:26:00,
2013-01-18 05:31:00,19.4,14.8,30.12,West,270,7.3,19.6,82,0.00,CLR,,0.00,WeatherDisplay:10.37,2013-01-18 10:31:00,
2013-01-18 05:36:00,19.2,14.1,30.13,West,270,16.6,16.6,80,0.00,CLR,,0.00,WeatherDisplay:10.37,2013-01-18 10:36:00,
2013-01-18 05:41:00,19.2,14.1,30.13,West,270,11.7,11.7,80,0.00,CLR,,0.00,WeatherDisplay:10.37,2013-01-18 10:41:00,
2013-01-18 05:46:00,19.2,14.1,30.14,West,270,5.2,15.0,80,0.00,CLR,,0.00,WeatherDisplay:10.37,2013-01-18 10:46:00,
2013-01-18 05:51:00,19.0,14.7,30.15,West,270,8.1,10.4,83,0.00,CLR,,0.00,WeatherDisplay:10.37,2013-01-18 10:51:00,
2013-01-18 05:56:00,18.9,14.3,30.15,West,270,9.0,10.4,82,0.00,CLR,,0.00,WeatherDisplay:10.37,2013-01-18 10:56:00,
2013-01-18 06:01:00,18.3,13.7,30.15,West,270,12.9,12.9,82,0.00,CLR,,0.00,WeatherDisplay:10.37,2013-01-18 11:01:00,
2013-01-18 06:06:00,18.1,13.6,30.16,West,270,5.8,5.8,82,0.00,CLR,,0.00,WeatherDisplay:10.37,2013-01-18 11:06:00,
2013-01-18 06:11:00,18.0,13.7,30.17,West,270,19.4,19.4,83,0.00,CLR,,0.00,WeatherDisplay:10.37,2013-01-18 11:11:00,
2013-01-18 06:16:00,18.0,13.4,30.18,West,270,0.3,10.4,82,0.00,CLR,,0.00,WeatherDisplay:10.37,2013-01-18 11:16:00,
2013-01-18 06:21:00,18.0,13.1,30.18,West,270,10.8,10.8,81,0.00,CLR,,0.00,WeatherDisplay:10.37,2013-01-18 11:21:00,
2013-01-18 06:26:00,17.6,12.5,30.19,West,270,10.5,11.5,80,0.00,CLR,,0.00,WeatherDisplay:10.37,2013-01-18 11:26:00,
2013-01-18 06:31:00,17.6,12.2,30.19,West,270,3.1,16.1,79,0.00,CLR,,0.00,WeatherDisplay:10.37,2013-01-18 11:31:00,
2013-01-18 06:36:00,17.6,12.2,30.19,West,270,4.0,12.7,79,0.00,CLR,,0.00,WeatherDisplay:10.37,2013-01-18 11:36:00,
2013-01-18 06:41:00,17.6,12.2,30.20,West,270,7.8,7.8,79,0.00,CLR,,0.00,WeatherDisplay:10.37,2013-01-18 11:41:00,
2013-01-18 06:46:00,17.4,12.0,30.20,West,270,5.8,9.2,79,0.00,CLR,,0.00,WeatherDisplay:10.37,2013-01-18 11:46:00,
2013-01-18 06:51:00,17.4,12.0,30.20,West,270,6.1,8.1,79,0.00,CLR,,0.00,WeatherDisplay:10.37,2013-01-18 11:51:00,
2013-01-18 06:56:00,17.2,11.6,30.21,West,270,4.0,8.1,78,0.00,CLR,,0.00,WeatherDisplay:10.37,2013-01-18 11:56:00,
2013-01-18 07:01:00,17.1,11.4,30.21,West,270,10.8,10.8,78,0.00,CLR,,0.00,WeatherDisplay:10.37,2013-01-18 12:01:00,
2013-01-18 07:06:00,16.9,11.2,30.21,West,270,5.5,8.1,78,0.00,CLR,,0.00,WeatherDisplay:10.37,2013-01-18 12:06:00,
2013-01-18 07:11:00,16.9,11.5,30.21,West,270,3.7,5.8,79,0.00,CLR,,0.00,WeatherDisplay:10.37,2013-01-18 12:11:00,
2013-01-18 07:16:00,16.9,11.2,30.21,West,270,8.1,18.4,78,0.00,CLR,,0.00,WeatherDisplay:10.37,2013-01-18 12:16:00,
2013-01-18 07:21:00,16.9,10.9,30.21,West,270,13.9,13.9,77,0.00,CLR,,0.00,WeatherDisplay:10.37,2013-01-18 12:21:00,
2013-01-18 07:26:00,16.9,10.9,30.21,West,270,10.2,10.2,77,0.00,CLR,,0.00,WeatherDisplay:10.37,2013-01-18 12:26:00,
2013-01-18 07:31:00,16.7,11.0,30.21,West,270,7.8,8.1,78,0.00,CLR,,0.00,WeatherDisplay:10.37,2013-01-18 12:31:00,
2013-01-18 07:36:00,16.5,11.1,30.22,West,270,11.7,13.8,79,0.00,CLR,,0.00,WeatherDisplay:10.37,2013-01-18 12:36:00,
2013-01-18 07:41:00,16.3,11.3,30.21,West,270,7.0,13.8,80,0.00,CLR,,0.00,WeatherDisplay:10.37,2013-01-18 12:41:00,
2013-01-18 07:46:00,16.2,10.8,30.22,West,270,9.0,9.2,79,0.00,CLR,,0.00,WeatherDisplay:10.37,2013-01-18 12:46:00,
2013-01-18 07:51:00,16.2,10.8,30.22,West,270,4.0,10.4,79,0.00,CLR,,0.00,WeatherDisplay:10.37,2013-01-18 12:51:00,
2013-01-18 07:56:00,16.2,10.5,30.22,West,270,12.6,12.7,78,0.00,CLR,,0.00,WeatherDisplay:10.37,2013-01-18 12:56:00,
2013-01-18 08:01:00,16.0,10.3,30.22,West,270,11.1,18.4,78,0.00,CLR,,0.00,WeatherDisplay:10.37,2013-01-18 13:01:00,
2013-01-18 08:06:00,15.8,10.2,30.22,West,270,6.7,10.4,78,0.00,CLR,,0.00,WeatherDisplay:10.37,2013-01-18 13:06:00,
2013-01-18 08:11:00,15.8,10.2,30.22,West,270,8.4,10.4,78,0.00,CLR,,0.00,WeatherDisplay:10.37,2013-01-18 13:11:00,
2013-01-18 08:16:00,15.8,10.2,30.22,West,270,9.0,9.2,78,0.00,CLR,,0.00,WeatherDisplay:10.37,2013-01-18 13:16:00,
2013-01-18 08:21:00,15.8,10.2,30.22,West,270,7.0,7.0,78,0.00,CLR,,0.00,WeatherDisplay:10.37,2013-01-18 13:21:00,
2013-01-18 08:26:00,15.6,10.0,30.23,West,270,3.7,10.4,78,0.00,CLR,,0.00,WeatherDisplay:10.37,2013-01-18 13:26:00,
2013-01-18 08:31:00,15.4,9.2,30.23,West,270,8.4,12.7,76,0.00,CLR,,0.00,WeatherDisplay:10.37,2013-01-18 13:31:00,
2013-01-18 08:36:00,15.4,9.2,30.23,West,270,7.3,19.6,76,0.00,CLR,,0.00,WeatherDisplay:10.37,2013-01-18 13:36:00,
2013-01-18 08:41:00,15.4,9.2,30.24,West,270,13.3,13.3,76,0.00,CLR,,0.00,WeatherDisplay:10.37,2013-01-18 13:41:00,
2013-01-18 08:46:00,15.4,9.2,30.24,West,270,12.3,12.3,76,0.00,CLR,,0.00,WeatherDisplay:10.37,2013-01-18 13:46:00,
2013-01-18 08:51:00,15.6,9.4,30.24,West,270,9.6,9.6,76,0.00,CLR,,0.00,WeatherDisplay:10.37,2013-01-18 13:51:00,
2013-01-18 08:56:00,15.6,9.4,30.24,West,270,7.0,11.5,76,0.00,CLR,,0.00,WeatherDisplay:10.37,2013-01-18 13:56:00,
2013-01-18 09:01:00,15.6,9.4,30.25,West,270,8.4,8.4,76,0.00,CLR,,0.00,WeatherDisplay:10.37,2013-01-18 14:01:00,
2013-01-18 09:06:00,15.6,9.1,30.25,West,270,4.3,6.9,75,0.00,CLR,,0.00,WeatherDisplay:10.37,2013-01-18 14:06:00,
2013-01-18 09:11:00,15.4,8.6,30.25,West,270,10.8,11.5,74,0.00,CLR,,0.00,WeatherDisplay:10.37,2013-01-18 14:11:00,
2013-01-18 09:16:00,15.6,8.8,30.25,West,270,9.0,9.0,74,0.00,CLR,,0.00,WeatherDisplay:10.37,2013-01-18 14:16:00,
2013-01-18 09:21:00,15.4,8.6,30.26,West,270,13.0,13.0,74,0.00,CLR,,0.00,WeatherDisplay:10.37,2013-01-18 14:21:00,
2013-01-18 09:26:00,15.4,8.3,30.26,West,270,4.9,10.4,73,0.00,CLR,,0.00,WeatherDisplay:10.37,2013-01-18 14:26:00,
2013-01-18 09:31:00,15.8,9.0,30.26,West,270,5.2,8.1,74,0.00,CLR,,0.00,WeatherDisplay:10.37,2013-01-18 14:31:00,
2013-01-18 09:36:00,16.0,8.8,30.27,West,270,5.2,5.2,73,0.00,CLR,,0.00,WeatherDisplay:10.37,2013-01-18 14:36:00,
2013-01-18 09:41:00,16.0,8.5,30.28,West,270,6.1,8.1,72,0.00,CLR,,0.00,WeatherDisplay:10.37,2013-01-18 14:41:00,
2013-01-18 09:46:00,16.2,8.7,30.28,West,270,8.7,9.2,72,0.00,CLR,,0.00,WeatherDisplay:10.37,2013-01-18 14:46:00,
2013-01-18 09:51:00,16.2,8.4,30.28,West,270,9.0,12.7,71,0.00,CLR,,0.00,WeatherDisplay:10.37,2013-01-18 14:51:00,
2013-01-18 09:56:00,16.3,8.6,30.28,West,270,5.8,6.9,71,0.00,CLR,,0.00,WeatherDisplay:10.37,2013-01-18 14:56:00,
2013-01-18 10:01:00,16.7,8.9,30.28,West,270,13.6,13.6,71,0.00,CLR,,0.00,WeatherDisplay:10.37,2013-01-18 15:01:00,
2013-01-18 10:06:00,16.9,9.1,30.29,West,270,9.6,9.6,71,0.00,CLR,,0.00,WeatherDisplay:10.37,2013-01-18 15:06:00,
2013-01-18 10:11:00,17.1,9.0,30.28,West,270,2.8,8.1,70,0.00,CLR,,0.00,WeatherDisplay:10.37,2013-01-18 15:11:00,
2013-01-18 10:16:00,17.2,9.1,30.29,West,270,4.3,8.1,70,0.00,CLR,,0.00,WeatherDisplay:10.37,2013-01-18 15:16:00,
2013-01-18 10:21:00,17.2,9.1,30.29,West,270,1.5,10.4,70,0.00,CLR,,0.00,WeatherDisplay:10.37,2013-01-18 15:21:00,
2013-01-18 10:26:00,17.6,9.2,30.28,West,270,7.3,7.3,69,0.00,CLR,,0.00,WeatherDisplay:10.37,2013-01-18 15:26:00,
2013-01-18 10:31:00,17.6,9.2,30.29,West,270,7.0,7.0,69,0.00,CLR,,0.00,WeatherDisplay:10.37,2013-01-18 15:31:00,
2013-01-18 10:36:00,17.6,9.2,30.28,West,270,6.1,6.9,69,0.00,CLR,,0.00,WeatherDisplay:10.37,2013-01-18 15:36:00,
2013-01-18 10:42:00,17.8,9.0,30.28,West,270,1.8,10.4,68,0.00,CLR,,0.00,WeatherDisplay:10.37,2013-01-18 15:42:00,
2013-01-18 10:47:00,18.3,9.8,30.29,West,270,3.1,3.1,69,0.00,CLR,,0.00,WeatherDisplay:10.37,2013-01-18 15:47:00,
2013-01-18 10:52:00,18.3,9.5,30.29,West,270,4.9,5.8,68,0.00,CLR,,0.00,WeatherDisplay:10.37,2013-01-18 15:52:00,
2013-01-18 10:57:00,18.7,9.9,30.28,West,270,5.8,5.8,68,0.00,CLR,,0.00,WeatherDisplay:10.37,2013-01-18 15:57:00,
2013-01-18 11:02:00,18.7,9.9,30.28,West,270,4.6,4.6,68,0.00,CLR,,0.00,WeatherDisplay:10.37,2013-01-18 16:02:00,
2013-01-18 11:07:00,18.9,9.7,30.29,West,270,1.8,8.1,67,0.00,CLR,,0.00,WeatherDisplay:10.37,2013-01-18 16:07:00,
2013-01-18 11:12:00,19.0,9.5,30.29,West,270,9.9,9.9,66,0.00,CLR,,0.00,WeatherDisplay:10.37,2013-01-18 16:12:00,
2013-01-18 11:17:00,19.2,10.4,30.29,West,270,7.0,7.0,68,0.00,CLR,,0.00,WeatherDisplay:10.37,2013-01-18 16:17:00,
2013-01-18 11:22:00,19.0,9.5,30.28,West,270,7.0,9.2,66,0.00,CLR,,0.00,WeatherDisplay:10.37,2013-01-18 16:22:00,
2013-01-18 11:27:00,19.2,9.7,30.29,West,270,4.3,6.9,66,0.00,CLR,,0.00,WeatherDisplay:10.37,2013-01-18 16:27:00,
2013-01-18 11:32:00,19.6,10.1,30.28,West,270,7.0,8.1,66,0.00,CLR,,0.00,WeatherDisplay:10.37,2013-01-18 16:32:00,
2013-01-18 11:37:00,19.6,10.1,30.28,West,270,2.4,3.5,66,0.00,CLR,,0.00,WeatherDisplay:10.37,2013-01-18 16:37:00,
2013-01-18 11:42:00,19.8,10.2,30.28,West,270,3.4,3.5,66,0.00,CLR,,0.00,WeatherDisplay:10.37,2013-01-18 16:42:00,
2013-01-18 11:47:00,19.9,10.1,30.28,West,270,4.0,9.2,65,0.00,CLR,,0.00,WeatherDisplay:10.37,2013-01-18 16:47:00,
2013-01-18 11:52:00,20.3,10.4,30.28,West,270,2.1,4.6,65,0.00,CLR,,0.00,WeatherDisplay:10.37,2013-01-18 16:52:00,
2013-01-18 11:57:00,20.3,10.1,30.28,West,270,5.8,5.8,64,0.00,CLR,,0.00,WeatherDisplay:10.37,2013-01-18 16:57:00,
2013-01-18 12:02:00,20.3,10.4,30.27,West,270,4.3,8.1,65,0.00,CLR,,0.00,WeatherDisplay:10.37,2013-01-18 17:02:00,
2013-01-18 12:07:00,20.5,10.2,30.27,West,270,3.1,8.1,64,0.00,CLR,,0.00,WeatherDisplay:10.37,2013-01-18 17:07:00,
2013-01-18 12:12:00,20.7,10.4,30.27,West,270,4.3,6.9,64,0.00,CLR,,0.00,WeatherDisplay:10.37,2013-01-18 17:12:00,
2013-01-18 12:17:00,20.7,10.7,30.27,West,270,5.2,8.1,65,0.00,CLR,,0.00,WeatherDisplay:10.37,2013-01-18 17:17:00,
2013-01-18 12:22:00,21.0,11.1,30.27,West,270,5.8,10.4,65,0.00,CLR,,0.00,WeatherDisplay:10.37,2013-01-18 17:22:00,
2013-01-18 12:27:00,20.8,10.9,30.27,West,270,2.5,6.9,65,0.00,CLR,,0.00,WeatherDisplay:10.37,2013-01-18 17:27:00,
2013-01-18 12:32:00,21.0,11.1,30.27,West,270,7.0,7.0,65,0.00,CLR,,0.00,WeatherDisplay:10.37,2013-01-18 17:32:00,
2013-01-18 12:37:00,21.0,11.1,30.27,West,270,7.6,7.6,65,0.00,CLR,,0.00,WeatherDisplay:10.37,2013-01-18 17:37:00,
2013-01-18 12:42:00,20.8,10.9,30.26,West,270,6.7,6.9,65,0.00,CLR,,0.00,WeatherDisplay:10.37,2013-01-18 17:42:00,
2013-01-18 12:47:00,21.2,11.3,30.26,West,270,1.5,4.6,65,0.00,CLR,,0.00,WeatherDisplay:10.37,2013-01-18 17:47:00,
2013-01-18 12:52:00,21.7,11.8,30.26,West,270,4.3,4.3,65,0.00,CLR,,0.00,WeatherDisplay:10.37,2013-01-18 17:52:00,
2013-01-18 12:57:00,21.6,11.3,30.26,West,270,4.3,5.8,64,0.00,CLR,,0.00,WeatherDisplay:10.37,2013-01-18 17:57:00,
2013-01-18 13:02:00,21.6,11.6,30.26,West,270,4.9,5.8,65,0.00,CLR,,0.00,WeatherDisplay:10.37,2013-01-18 18:02:00,
2013-01-18 13:07:00,21.7,11.8,30.26,West,270,11.4,11.5,65,0.00,CLR,,0.00,WeatherDisplay:10.37,2013-01-18 18:07:00,
2013-01-18 13:12:00,21.9,11.6,30.26,West,270,5.2,6.9,64,0.00,CLR,,0.00,WeatherDisplay:10.37,2013-01-18 18:12:00,
2013-01-18 13:17:00,21.9,11.2,30.26,West,270,3.7,3.7,63,0.00,CLR,,0.00,WeatherDisplay:10.37,2013-01-18 18:17:00,
2013-01-18 13:22:00,22.1,11.8,30.26,West,270,2.5,3.5,64,0.00,CLR,,0.00,WeatherDisplay:10.37,2013-01-18 18:22:00,
2013-01-18 13:27:00,22.3,11.6,30.26,West,270,6.4,6.9,63,0.00,CLR,,0.00,WeatherDisplay:10.37,2013-01-18 18:27:00,
2013-01-18 13:32:00,22.5,11.8,30.26,West,270,5.2,5.8,63,0.00,CLR,,0.00,WeatherDisplay:10.37,2013-01-18 18:32:00,
2013-01-18 13:37:00,22.3,11.6,30.26,West,270,4.6,4.6,63,0.00,CLR,,0.00,WeatherDisplay:10.37,2013-01-18 18:37:00,
2013-01-18 13:42:00,22.6,11.6,30.26,West,270,5.5,5.5,62,0.00,CLR,,0.00,WeatherDisplay:10.37,2013-01-18 18:42:00,
2013-01-18 13:47:00,22.8,12.1,30.26,West,270,3.1,4.6,63,0.00,CLR,,0.00,WeatherDisplay:10.37,2013-01-18 18:47:00,
2013-01-18 13:52:00,23.0,11.9,30.26,West,270,0.6,4.6,62,0.00,CLR,,0.00,WeatherDisplay:10.37,2013-01-18 18:52:00,
2013-01-18 13:57:00,23.4,12.2,30.26,West,270,4.0,6.9,62,0.00,CLR,,0.00,WeatherDisplay:10.37,2013-01-18 18:57:00,
2013-01-18 14:02:00,23.7,12.2,30.26,West,270,2.8,5.8,61,0.00,CLR,,0.00,WeatherDisplay:10.37,2013-01-18 19:02:00,
2013-01-18 14:07:00,24.1,12.6,30.26,West,270,0.3,3.5,61,0.00,CLR,,0.00,WeatherDisplay:10.37,2013-01-18 19:07:00,
2013-01-18 14:12:00,24.6,12.3,30.26,West,270,2.5,5.8,59,0.00,CLR,,0.00,WeatherDisplay:10.37,2013-01-18 19:12:00,
2013-01-18 14:17:00,24.6,12.3,30.26,West,270,2.4,4.6,59,0.00,CLR,,0.00,WeatherDisplay:10.37,2013-01-18 19:17:00,
2013-01-18 14:22:00,25.2,12.8,30.26,West,270,3.1,5.8,59,0.00,CLR,,0.00,WeatherDisplay:10.37,2013-01-18 19:22:00,
2013-01-18 14:27:00,25.5,13.2,30.26,West,270,5.2,5.8,59,0.00,CLR,,0.00,WeatherDisplay:10.37,2013-01-18 19:27:00,
2013-01-18 14:32:00,25.9,13.5,30.26,West,270,2.8,4.6,59,0.00,CLR,,0.00,WeatherDisplay:10.37,2013-01-18 19:32:00,
2013-01-18 14:37:00,25.9,13.1,30.26,West,270,4.0,4.6,58,0.00,CLR,,0.00,WeatherDisplay:10.37,2013-01-18 19:37:00,
2013-01-18 14:42:00,26.2,13.8,30.26,West,270,1.2,1.2,59,0.00,CLR,,0.00,WeatherDisplay:10.37,2013-01-18 19:42:00,
2013-01-18 14:47:00,27.1,13.9,30.26,West,270,9.6,9.6,57,0.00,CLR,,0.00,WeatherDisplay:10.37,2013-01-18 19:47:00,
2013-01-18 14:52:00,26.4,12.8,30.26,West,270,9.3,9.3,56,0.00,CLR,,0.00,WeatherDisplay:10.37,2013-01-18 19:52:00,
2013-01-18 14:57:00,27.3,13.7,30.26,West,270,2.1,2.3,56,0.00,CLR,,0.00,WeatherDisplay:10.37,2013-01-18 19:57:00,
2013-01-18 15:02:00,28.2,14.1,30.26,West,270,4.6,5.8,55,0.00,CLR,,0.00,WeatherDisplay:10.37,2013-01-18 20:02:00,
2013-01-18 15:07:00,27.0,12.9,30.25,West,270,4.0,8.1,55,0.00,CLR,,0.00,WeatherDisplay:10.37,2013-01-18 20:07:00,
2013-01-18 15:12:00,26.6,13.0,30.26,West,270,6.1,6.1,56,0.00,CLR,,0.00,WeatherDisplay:10.37,2013-01-18 20:12:00,
2013-01-18 15:17:00,27.7,14.0,30.25,West,270,4.6,4.6,56,0.00,CLR,,0.00,WeatherDisplay:10.37,2013-01-18 20:17:00,
2013-01-18 15:22:00,27.0,12.5,30.26,West,270,7.6,7.6,54,0.00,CLR,,0.00,WeatherDisplay:10.37,2013-01-18 20:22:00,
2013-01-18 15:27:00,26.1,12.1,30.25,West,270,2.4,5.8,55,0.00,CLR,,0.00,WeatherDisplay:10.37,2013-01-18 20:27:00,
2013-01-18 15:32:00,26.2,12.7,30.25,West,270,3.1,6.9,56,0.00,CLR,,0.00,WeatherDisplay:10.37,2013-01-18 20:32:00,
2013-01-18 15:37:00,26.6,13.0,30.25,West,270,4.6,4.6,56,0.00,CLR,,0.00,WeatherDisplay:10.37,2013-01-18 20:37:00,
2013-01-18 15:42:00,26.8,12.8,30.25,West,270,4.0,4.0,55,0.00,CLR,,0.00,WeatherDisplay:10.37,2013-01-18 20:42:00,
2013-01-18 15:47:00,27.3,14.1,30.26,West,270,3.4,3.4,57,0.00,CLR,,0.00,WeatherDisplay:10.37,2013-01-18 20:47:00,
2013-01-18 15:52:00,28.2,14.5,30.26,West,270,2.1,2.3,56,0.00,CLR,,0.00,WeatherDisplay:10.37,2013-01-18 20:52:00,
2013-01-18 15:57:00,28.6,14.0,30.26,West,270,4.0,4.6,54,0.00,CLR,,0.00,WeatherDisplay:10.37,2013-01-18 20:57:00,
2013-01-18 16:02:00,28.9,13.9,30.25,West,270,5.8,5.8,53,0.00,CLR,,0.00,WeatherDisplay:10.37,2013-01-18 21:02:00,
2013-01-18 16:07:00,28.0,13.1,30.25,West,270,1.5,4.6,53,0.00,CLR,,0.00,WeatherDisplay:10.37,2013-01-18 21:07:00,
2013-01-18 16:12:00,28.4,13.9,30.25,West,270,0.6,2.3,54,0.00,CLR,,0.00,WeatherDisplay:10.37,2013-01-18 21:12:00,
2013-01-18 16:17:00,29.5,15.3,30.25,West,270,1.2,1.2,55,0.00,CLR,,0.00,WeatherDisplay:10.37,2013-01-18 21:17:00,
2013-01-18 16:22:00,30.2,15.5,30.24,West,270,4.3,4.3,54,0.00,CLR,,0.00,WeatherDisplay:10.37,2013-01-18 21:22:00,
2013-01-18 16:27:00,30.2,15.1,30.24,West,270,2.4,2.4,53,0.00,CLR,,0.00,WeatherDisplay:10.37,2013-01-18 21:27:00,
2013-01-18 16:32:00,30.9,16.6,30.24,West,270,2.8,2.8,55,0.00,CLR,,0.00,WeatherDisplay:10.37,2013-01-18 21:32:00,
2013-01-18 16:37:00,31.1,16.8,30.24,West,270,2.1,2.3,55,0.00,CLR,,0.00,WeatherDisplay:10.37,2013-01-18 21:37:00,
2013-01-18 16:42:00,31.5,17.1,30.24,West,270,1.5,2.3,55,0.00,CLR,,0.00,WeatherDisplay:10.37,2013-01-18 21:42:00,
2013-01-18 16:47:00,31.3,16.5,30.24,West,270,1.5,1.5,54,0.00,CLR,,0.00,WeatherDisplay:10.37,2013-01-18 21:47:00,
2013-01-18 16:52:00,30.4,15.7,30.24,West,270,2.1,2.3,54,0.00,CLR,,0.00,WeatherDisplay:10.37,2013-01-18 21:52:00,
2013-01-18 16:57:00,29.1,14.5,30.24,West,270,1.5,2.3,54,0.00,CLR,,0.00,WeatherDisplay:10.37,2013-01-18 21:57:00,
2013-01-18 17:03:00,28.4,14.7,30.24,West,270,1.2,1.2,56,0.00,CLR,,0.00,WeatherDisplay:10.37,2013-01-18 22:03:00,
2013-01-18 17:09:00,27.9,14.6,30.24,West,270,2.4,2.4,57,0.00,CLR,,0.00,WeatherDisplay:10.37,2013-01-18 22:09:00,
2013-01-18 17:14:00,27.5,14.6,30.23,West,270,1.5,1.5,58,0.00,CLR,,0.00,WeatherDisplay:10.37,2013-01-18 22:14:00,
2013-01-18 17:19:00,27.1,14.7,30.23,West,270,0.0,0.0,59,0.00,CLR,,0.00,WeatherDisplay:10.37,2013-01-18 22:19:00,
2013-01-18 17:24:00,27.0,14.5,30.23,West,270,0.0,0.0,59,0.00,CLR,,0.00,WeatherDisplay:10.37,2013-01-18 22:24:00,
2013-01-18 17:29:00,26.6,14.6,30.24,West,270,0.0,0.0,60,0.00,CLR,,0.00,WeatherDisplay:10.37,2013-01-18 22:29:00,
2013-01-18 17:34:00,26.4,14.4,30.23,West,270,2.1,2.3,60,0.00,CLR,,0.00,WeatherDisplay:10.37,2013-01-18 22:34:00,
2013-01-18 17:39:00,26.2,14.2,30.23,West,270,0.0,1.1,60,0.00,CLR,,0.00,WeatherDisplay:10.37,2013-01-18 22:39:00,
2013-01-18 17:44:00,26.1,14.1,30.24,West,270,0.3,0.3,60,0.00,CLR,,0.00,WeatherDisplay:10.37,2013-01-18 22:44:00,
2013-01-18 17:49:00,25.7,14.1,30.24,West,270,0.0,0.0,61,0.00,CLR,,0.00,WeatherDisplay:10.37,2013-01-18 22:49:00,
2013-01-18 17:54:00,25.7,14.1,30.24,West,270,0.0,0.0,61,0.00,CLR,,0.00,WeatherDisplay:10.37,2013-01-18 22:54:00,
2013-01-18 18:00:00,25.5,13.9,30.24,West,270,0.0,1.0,61,0.00,CLR,CLR,0.00,WeatherDisplay:10.37,2013-01-18 23:00:00,
2013-01-18 18:05:00,25.3,14.1,30.24,West,270,1.5,1.5,62,0.00,CLR,,0.00,WeatherDisplay:10.37,2013-01-18 23:05:00,
2013-01-18 18:11:00,25.0,14.2,30.23,West,270,2.1,2.3,63,0.00,CLR,,0.00,WeatherDisplay:10.37,2013-01-18 23:11:00,
2013-01-18 18:16:00,24.8,14.0,30.23,West,270,3.1,3.5,63,0.00,CLR,,0.00,WeatherDisplay:10.37,2013-01-18 23:16:00,
2013-01-18 18:21:00,24.8,14.3,30.23,West,270,4.6,4.6,64,0.00,CLR,,0.00,WeatherDisplay:10.37,2013-01-18 23:21:00,
2013-01-18 18:26:00,24.8,14.3,30.23,West,270,3.7,3.7,64,0.00,CLR,,0.00,WeatherDisplay:10.37,2013-01-18 23:26:00,
2013-01-18 18:31:00,24.6,14.5,30.23,West,270,3.4,4.6,65,0.00,CLR,,0.00,WeatherDisplay:10.37,2013-01-18 23:31:00,
2013-01-18 18:36:00,24.4,14.4,30.23,West,270,1.2,4.6,65,0.00,CLR,,0.00,WeatherDisplay:10.37,2013-01-18 23:36:00,
2013-01-18 18:41:00,24.4,14.7,30.23,West,270,1.2,3.5,66,0.00,CLR,,0.00,WeatherDisplay:10.37,2013-01-18 23:41:00,
2013-01-18 18:46:00,24.4,14.7,30.23,West,270,0.6,1.1,66,0.00,CLR,,0.00,WeatherDisplay:10.37,2013-01-18 23:46:00,
2013-01-18 18:51:00,24.3,14.5,30.23,West,270,5.2,5.8,66,0.00,CLR,,0.00,WeatherDisplay:10.37,2013-01-18 23:51:00,
2013-01-18 18:56:00,24.3,14.5,30.23,West,270,4.3,4.6,66,0.00,CLR,,0.00,WeatherDisplay:10.37,2013-01-18 23:56:00,
2013-01-18 19:01:00,24.4,14.7,30.23,West,270,2.5,5.8,66,0.00,CLR,,0.00,WeatherDisplay:10.37,2013-01-19 00:01:00,
2013-01-18 19:06:00,24.4,14.7,30.23,West,270,1.5,2.3,66,0.00,CLR,,0.00,WeatherDisplay:10.37,2013-01-19 00:06:00,
2013-01-18 19:11:00,24.6,14.9,30.23,West,270,2.8,2.8,66,0.00,CLR,,0.00,WeatherDisplay:10.37,2013-01-19 00:11:00,
2013-01-18 19:16:00,24.4,14.7,30.23,West,270,2.4,2.4,66,0.00,CLR,,0.00,WeatherDisplay:10.37,2013-01-19 00:16:00,
2013-01-18 19:21:00,24.6,14.9,30.23,West,270,2.5,3.5,66,0.00,CLR,,0.00,WeatherDisplay:10.37,2013-01-19 00:21:00,
2013-01-18 19:26:00,24.6,14.9,30.23,West,270,2.4,2.4,66,0.00,CLR,,0.00,WeatherDisplay:10.37,2013-01-19 00:26:00,
2013-01-18 19:32:00,24.4,14.7,30.23,West,270,0.6,3.5,66,0.00,CLR,,0.00,WeatherDisplay:10.37,2013-01-19 00:32:00,
2013-01-18 19:37:00,24.4,14.7,30.23,West,270,1.5,1.5,66,0.00,CLR,,0.00,WeatherDisplay:10.37,2013-01-19 00:37:00,
2013-01-18 19:42:00,24.6,14.9,30.22,West,270,0.6,2.3,66,0.00,CLR,,0.00,WeatherDisplay:10.37,2013-01-19 00:42:00,
2013-01-18 19:47:00,24.8,15.0,30.22,West,270,0.9,1.1,66,0.00,CLR,,0.00,WeatherDisplay:10.37,2013-01-19 00:47:00,
2013-01-18 19:52:00,24.8,15.0,30.22,West,270,0.9,1.1,66,0.00,CLR,,0.00,WeatherDisplay:10.37,2013-01-19 00:52:00,
2013-01-18 19:57:00,24.8,15.0,30.22,West,270,0.6,1.1,66,0.00,CLR,,0.00,WeatherDisplay:10.37,2013-01-19 00:57:00,
2013-01-18 20:02:00,24.8,14.7,30.22,West,270,2.8,2.8,65,0.00,CLR,,0.00,WeatherDisplay:10.37,2013-01-19 01:02:00,
2013-01-18 20:07:00,24.8,14.7,30.23,West,270,1.2,1.2,65,0.00,CLR,,0.00,WeatherDisplay:10.37,2013-01-19 01:07:00,
2013-01-18 20:12:00,24.4,14.7,30.22,West,270,0.6,0.0,66,0.00,CLR,,0.00,WeatherDisplay:10.37,2013-01-19 01:12:00,
2013-01-18 20:17:00,24.3,14.5,30.22,West,270,0.0,1.1,66,0.00,CLR,,0.00,WeatherDisplay:10.37,2013-01-19 01:17:00,
2013-01-18 20:22:00,24.3,14.9,30.22,West,270,0.9,1.1,67,0.00,CLR,,0.00,WeatherDisplay:10.37,2013-01-19 01:22:00,
2013-01-18 20:27:00,24.4,14.7,30.22,West,270,0.0,2.3,66,0.00,CLR,,0.00,WeatherDisplay:10.37,2013-01-19 01:27:00,
2013-01-18 20:32:00,24.8,15.0,30.22,West,270,1.5,1.5,66,0.00,CLR,,0.00,WeatherDisplay:10.37,2013-01-19 01:32:00,
2013-01-18 20:37:00,24.8,14.7,30.22,West,270,1.5,1.5,65,0.00,CLR,,0.00,WeatherDisplay:10.37,2013-01-19 01:37:00,
2013-01-18 20:42:00,25.0,14.9,30.21,West,270,0.6,1.1,65,0.00,CLR,,0.00,WeatherDisplay:10.37,2013-01-19 01:42:00,
2013-01-18 20:47:00,25.0,14.5,30.21,West,270,0.6,1.1,64,0.00,CLR,,0.00,WeatherDisplay:10.37,2013-01-19 01:47:00,
2013-01-18 20:52:00,25.2,14.7,30.21,West,270,0.6,1.1,64,0.00,CLR,,0.00,WeatherDisplay:10.37,2013-01-19 01:52:00,
2013-01-18 20:57:00,25.3,14.5,30.21,West,270,1.2,1.2,63,0.00,CLR,,0.00,WeatherDisplay:10.37,2013-01-19 01:57:00,
2013-01-18 21:02:00,25.5,14.3,30.21,West,270,1.5,2.3,62,0.00,CLR,,0.00,WeatherDisplay:10.37,2013-01-19 02:02:00,
2013-01-18 21:08:00,25.5,14.3,30.21,West,270,0.3,2.3,62,0.00,CLR,,0.00,WeatherDisplay:10.37,2013-01-19 02:08:00,
2013-01-18 21:13:00,25.7,14.1,30.21,West,270,0.9,1.1,61,0.00,CLR,,0.00,WeatherDisplay:10.37,2013-01-19 02:13:00,
2013-01-18 21:18:00,25.7,14.1,30.21,West,270,1.5,2.3,61,0.00,CLR,,0.00,WeatherDisplay:10.37,2013-01-19 02:18:00,
2013-01-18 21:23:00,25.9,14.3,30.21,West,270,0.6,0.0,61,0.00,CLR,,0.00,WeatherDisplay:10.37,2013-01-19 02:23:00,
2013-01-18 21:28:00,25.9,14.3,30.21,West,270,0.0,1.1,61,0.00,CLR,,0.00,WeatherDisplay:10.37,2013-01-19 02:28:00,
2013-01-18 21:33:00,26.1,13.7,30.21,West,270,2.8,2.8,59,0.00,CLR,,0.00,WeatherDisplay:10.37,2013-01-19 02:33:00,
2013-01-18 21:38:00,26.2,14.2,30.21,West,270,0.6,1.1,60,0.00,CLR,,0.00,WeatherDisplay:10.37,2013-01-19 02:38:00,
2013-01-18 21:44:00,26.6,14.2,30.20,West,270,0.6,1.1,59,0.00,CLR,,0.00,WeatherDisplay:10.37,2013-01-19 02:44:00,
2013-01-18 21:49:00,26.6,14.2,30.20,West,270,0.9,1.1,59,0.00,CLR,,0.00,WeatherDisplay:10.37,2013-01-19 02:49:00,
2013-01-18 21:54:00,26.6,14.2,30.20,West,270,0.0,1.1,59,0.00,CLR,,0.00,WeatherDisplay:10.37,2013-01-19 02:54:00,
2013-01-18 21:59:00,26.8,14.0,30.20,West,270,0.0,1.1,58,0.00,CLR,,0.00,WeatherDisplay:10.37,2013-01-19 02:59:00,
2013-01-18 22:04:00,26.8,13.6,30.20,West,270,0.6,1.1,57,0.00,CLR,,0.00,WeatherDisplay:10.37,2013-01-19 03:04:00,
2013-01-18 22:09:00,27.0,13.3,30.19,West,270,0.6,1.1,56,0.00,CLR,,0.00,WeatherDisplay:10.37,2013-01-19 03:09:00,
2013-01-18 22:14:00,27.0,12.9,30.19,West,270,2.5,2.5,55,0.00,CLR,,0.00,WeatherDisplay:10.37,2013-01-19 03:14:00,
2013-01-18 22:19:00,27.3,12.8,30.18,West,270,1.5,2.3,54,0.00,CLR,,0.00,WeatherDisplay:10.37,2013-01-19 03:19:00,
2013-01-18 22:24:00,27.3,12.8,30.18,West,270,1.8,2.3,54,0.00,CLR,,0.00,WeatherDisplay:10.37,2013-01-19 03:24:00,
2013-01-18 22:29:00,28.0,12.2,30.18,West,270,1.5,2.3,51,0.00,CLR,,0.00,WeatherDisplay:10.37,2013-01-19 03:29:00,
2013-01-18 22:34:00,28.4,11.6,30.18,West,270,2.1,3.5,49,0.00,CLR,,0.00,WeatherDisplay:10.37,2013-01-19 03:34:00,
2013-01-18 22:39:00,28.8,11.5,30.18,West,270,1.5,10.4,48,0.00,CLR,,0.00,WeatherDisplay:10.37,2013-01-19 03:39:00,
2013-01-18 22:44:00,29.1,11.8,30.18,West,270,1.5,5.8,48,0.00,CLR,,0.00,WeatherDisplay:10.37,2013-01-19 03:44:00,
2013-01-18 22:49:00,29.1,10.9,30.17,West,270,5.2,5.8,46,0.00,CLR,,0.00,WeatherDisplay:10.37,2013-01-19 03:49:00,
2013-01-18 22:54:00,29.3,9.5,30.17,West,270,5.2,8.1,43,0.00,CLR,,0.00,WeatherDisplay:10.37,2013-01-19 03:54:00,
2013-01-18 22:59:00,29.7,10.4,30.17,West,270,1.5,2.3,44,0.00,CLR,,0.00,WeatherDisplay:10.37,2013-01-19 03:59:00,
2013-01-18 23:04:00,29.8,10.5,30.17,West,270,9.9,9.9,44,0.00,CLR,,0.00,WeatherDisplay:10.37,2013-01-19 04:04:00,
2013-01-18 23:09:00,30.0,10.2,30.16,West,270,1.5,5.8,43,0.00,CLR,,0.00,WeatherDisplay:10.37,2013-01-19 04:09:00,
2013-01-18 23:14:00,30.2,9.8,30.16,West,270,3.1,5.8,42,0.00,CLR,,0.00,WeatherDisplay:10.37,2013-01-19 04:14:00,
2013-01-18 23:19:00,30.2,8.7,30.17,West,270,1.8,9.2,40,0.00,CLR,,0.00,WeatherDisplay:10.37,2013-01-19 04:19:00,
2013-01-18 23:24:00,30.4,9.5,30.16,West,270,0.6,2.3,41,0.00,CLR,,0.00,WeatherDisplay:10.37,2013-01-19 04:24:00,
2013-01-18 23:29:00,30.4,9.5,30.16,West,270,2.4,3.5,41,0.00,CLR,,0.00,WeatherDisplay:10.37,2013-01-19 04:29:00,
2013-01-18 23:34:00,30.7,9.2,30.16,West,270,0.0,3.5,40,0.00,CLR,,0.00,WeatherDisplay:10.37,2013-01-19 04:34:00,
2013-01-18 23:39:00,30.7,9.2,30.16,West,270,2.4,2.4,40,0.00,CLR,,0.00,WeatherDisplay:10.37,2013-01-19 04:39:00,
2013-01-18 23:44:00,30.7,9.2,30.16,West,270,2.4,3.5,40,0.00,CLR,,0.00,WeatherDisplay:10.37,2013-01-19 04:44:00,
2013-01-18 23:49:00,30.9,8.8,30.16,West,270,4.3,4.3,39,0.00,CLR,,0.00,WeatherDisplay:10.37,2013-01-19 04:49:00,
2013-01-18 23:54:00,31.1,9.0,30.16,West,270,0.6,1.1,39,0.00,CLR,,0.00,WeatherDisplay:10.37,2013-01-19 04:54:00,
2013-01-18 23:59:00,30.9,8.8,30.16,West,270,2.8,2.8,39,0.00,CLR,,0.00,WeatherDisplay:10.37,2013-01-19 04:59:00,